createdAt,value
2017-11-23T00:01:12.521Z,91.40
2017-11-23T00:03:40.597Z,91.40
2017-11-23T00:06:08.694Z,91.80
2017-11-23T00:08:40.310Z,91.30
2017-11-23T00:11:09.327Z,91.00
2017-11-23T00:13:37.416Z,90.70
2017-11-23T00:16:05.576Z,90.60
2017-11-23T00:18:33.736Z,91.10
2017-11-23T00:21:01.842Z,91.00
2017-11-23T00:23:29.980Z,90.60
2017-11-23T00:25:58.048Z,91.20
2017-11-23T00:28:26.261Z,90.80
2017-11-23T00:30:54.328Z,91.50
2017-11-23T00:33:22.614Z,90.50
2017-11-23T00:35:50.683Z,91.00
2017-11-23T00:38:18.761Z,90.30
2017-11-23T00:40:47.681Z,90.30
2017-11-23T00:43:15.777Z,90.20
2017-11-23T00:45:43.894Z,90.10
2017-11-23T00:48:11.959Z,90.80
2017-11-23T00:50:40.060Z,90.80
2017-11-23T00:53:09.970Z,91.00
2017-11-23T00:55:38.057Z,91.00
2017-11-23T00:58:06.116Z,90.70
2017-11-23T01:00:34.204Z,90.80
2017-11-23T01:03:02.283Z,90.50
2017-11-23T01:05:30.350Z,91.00
2017-11-23T01:07:58.461Z,91.40
2017-11-23T01:10:26.530Z,91.20
2017-11-23T01:12:54.708Z,91.10
2017-11-23T01:15:22.768Z,90.80
2017-11-23T01:17:50.894Z,90.70
2017-11-23T01:20:19.732Z,91.40
2017-11-23T01:22:47.808Z,91.40
2017-11-23T01:25:16.015Z,91.00
2017-11-23T01:27:44.180Z,91.20
2017-11-23T01:30:13.386Z,91.20
2017-11-23T01:32:41.500Z,91.40
2017-11-23T01:35:09.813Z,91.10
2017-11-23T01:37:37.920Z,90.60
2017-11-23T01:40:06.218Z,90.70
2017-11-23T01:42:34.294Z,91.50
2017-11-23T01:45:02.596Z,91.20
2017-11-23T01:47:30.681Z,91.20
2017-11-23T01:49:58.757Z,91.40
2017-11-23T01:52:26.879Z,90.90
2017-11-23T01:54:55.005Z,91.30
2017-11-23T01:57:23.076Z,91.20
2017-11-23T01:59:51.164Z,91.10
2017-11-23T02:02:19.250Z,91.30
2017-11-23T02:04:48.846Z,90.70
2017-11-23T02:07:16.932Z,90.60
2017-11-23T02:09:45.774Z,90.80
2017-11-23T02:12:13.905Z,90.80
2017-11-23T02:14:42.745Z,91.10
2017-11-23T02:17:10.817Z,90.80
2017-11-23T02:19:40.077Z,90.90
2017-11-23T02:22:08.164Z,91.10
2017-11-23T02:24:36.258Z,90.60
2017-11-23T02:27:04.353Z,90.70
2017-11-23T02:29:32.480Z,91.10
2017-11-23T02:32:00.641Z,90.90
2017-11-23T02:34:28.719Z,90.70
2017-11-23T02:36:56.838Z,90.60
2017-11-23T02:39:24.906Z,90.50
2017-11-23T02:41:52.999Z,91.40
2017-11-23T02:44:21.836Z,90.70
2017-11-23T02:46:50.006Z,90.70
2017-11-23T02:49:18.078Z,90.70
2017-11-23T02:51:46.182Z,91.90
2017-11-23T02:54:14.346Z,91.10
2017-11-23T02:56:42.684Z,90.70
2017-11-23T02:59:10.746Z,90.90
2017-11-23T03:01:38.825Z,91.10
2017-11-23T03:04:06.925Z,90.60
2017-11-23T03:06:34.990Z,91.50
2017-11-23T03:09:03.103Z,91.30
2017-11-23T03:11:31.210Z,91.10
2017-11-23T03:13:59.304Z,91.20
2017-11-23T03:16:27.375Z,91.40
2017-11-23T03:18:55.486Z,91.70
2017-11-23T03:21:23.557Z,91.60
2017-11-23T03:23:51.632Z,91.10
2017-11-23T03:26:19.781Z,91.20
2017-11-23T03:28:48.172Z,91.80
2017-11-23T03:31:16.243Z,91.30
2017-11-23T03:33:44.333Z,91.50
2017-11-23T03:36:12.467Z,91.70
2017-11-23T03:38:40.541Z,91.50
2017-11-23T03:41:08.658Z,91.90
2017-11-23T03:43:36.725Z,91.90
2017-11-23T03:46:05.601Z,92.30
2017-11-23T03:48:33.758Z,92.20
2017-11-23T03:51:01.819Z,92.30
2017-11-23T03:53:30.916Z,91.90
2017-11-23T03:55:58.993Z,91.80
2017-11-23T03:58:27.061Z,92.00
2017-11-23T04:00:55.134Z,91.60
2017-11-23T04:03:23.249Z,92.00
2017-11-23T04:05:51.336Z,92.00
2017-11-23T04:08:20.192Z,92.10
2017-11-23T04:10:48.333Z,92.10
2017-11-23T04:13:16.402Z,92.30
2017-11-23T04:15:44.493Z,92.30
2017-11-23T04:18:12.576Z,92.50
2017-11-23T04:20:40.733Z,92.60
2017-11-23T04:23:08.825Z,92.30
2017-11-23T04:25:36.967Z,92.90
2017-11-23T04:28:05.093Z,92.50
2017-11-23T04:30:33.161Z,92.30
2017-11-23T04:33:01.285Z,92.60
2017-11-23T04:35:29.364Z,92.60
2017-11-23T04:37:57.440Z,93.10
2017-11-23T04:40:25.563Z,93.00
2017-11-23T04:42:53.659Z,93.40
2017-11-23T04:45:21.973Z,93.10
2017-11-23T04:47:50.148Z,93.40
2017-11-23T04:50:18.564Z,92.90
2017-11-23T04:52:46.636Z,93.10
2017-11-23T04:55:14.771Z,93.10
2017-11-23T04:57:42.840Z,92.80
2017-11-23T05:00:10.942Z,92.90
2017-11-23T05:02:39.070Z,92.60
2017-11-23T05:05:07.153Z,92.10
2017-11-23T05:07:35.248Z,92.00
2017-11-23T05:10:03.352Z,92.60
2017-11-23T05:12:32.220Z,91.80
2017-11-23T05:15:00.284Z,91.90
2017-11-23T05:17:28.390Z,91.70
2017-11-23T05:19:57.358Z,91.80
2017-11-23T05:22:25.426Z,91.80
2017-11-23T05:24:53.517Z,92.00
2017-11-23T05:27:21.753Z,92.30
2017-11-23T05:29:49.840Z,91.80
2017-11-23T05:32:18.013Z,91.80
2017-11-23T05:34:46.088Z,91.80
2017-11-23T05:37:14.171Z,91.70
2017-11-23T05:39:42.250Z,91.70
2017-11-23T05:42:10.353Z,92.20
2017-11-23T05:44:38.425Z,91.90
2017-11-23T05:47:06.524Z,91.60
2017-11-23T05:49:34.604Z,92.00
2017-11-23T05:52:02.700Z,92.00
2017-11-23T05:54:30.771Z,92.00
2017-11-23T05:56:58.864Z,92.20
2017-11-23T05:59:28.299Z,92.10
2017-11-23T06:01:56.422Z,92.10
2017-11-23T06:04:24.669Z,92.50
2017-11-23T06:06:52.982Z,92.50
2017-11-23T06:09:21.149Z,92.20
2017-11-23T06:11:49.279Z,93.00
2017-11-23T06:14:17.374Z,92.30
2017-11-23T06:16:45.457Z,92.40
2017-11-23T06:19:13.553Z,92.30
2017-11-23T06:21:42.417Z,92.00
2017-11-23T06:24:10.481Z,91.90
2017-11-23T06:26:38.570Z,92.40
2017-11-23T06:29:06.651Z,92.30
2017-11-23T06:31:35.787Z,92.10
2017-11-23T06:34:03.900Z,92.50
2017-11-23T06:36:31.981Z,92.40
2017-11-23T06:39:00.073Z,92.30
2017-11-23T06:41:28.179Z,92.40
2017-11-23T06:43:56.367Z,92.00
2017-11-23T06:46:24.469Z,91.90
2017-11-23T06:48:52.558Z,91.80
2017-11-23T06:51:20.650Z,92.00
2017-11-23T06:53:48.748Z,92.20
2017-11-23T06:56:16.825Z,91.80
2017-11-23T06:58:44.939Z,91.60
2017-11-23T07:01:13.046Z,92.20
2017-11-23T07:03:41.144Z,91.80
2017-11-23T07:06:09.244Z,91.60
2017-11-23T07:08:37.333Z,92.00
2017-11-23T07:11:05.427Z,92.00
2017-11-23T07:13:34.280Z,91.60
2017-11-23T07:16:02.393Z,91.60
2017-11-23T07:18:31.293Z,92.10
2017-11-23T07:20:59.385Z,92.10
2017-11-23T07:23:27.492Z,91.90
2017-11-23T07:25:55.607Z,91.70
2017-11-23T07:28:23.691Z,91.70
2017-11-23T07:30:51.803Z,91.80
2017-11-23T07:33:19.885Z,91.60
2017-11-23T07:35:47.996Z,92.50
2017-11-23T07:38:16.072Z,91.80
2017-11-23T07:40:44.168Z,91.90
2017-11-23T07:43:12.321Z,92.40
2017-11-23T07:45:40.425Z,92.30
2017-11-23T07:48:08.611Z,92.40
2017-11-23T07:50:36.681Z,92.30
2017-11-23T07:53:04.837Z,92.20
2017-11-23T07:55:32.932Z,92.10
2017-11-23T07:58:01.053Z,92.30
2017-11-23T08:00:29.169Z,92.10
2017-11-23T08:02:57.240Z,92.30
2017-11-23T08:05:25.333Z,92.20
2017-11-23T08:07:53.440Z,92.20
2017-11-23T08:10:21.513Z,92.20
2017-11-23T08:12:49.613Z,92.20
2017-11-23T08:15:17.767Z,92.40
2017-11-23T08:17:45.838Z,92.20
2017-11-23T08:20:13.947Z,92.00
2017-11-23T08:22:42.086Z,92.40
2017-11-23T08:25:10.176Z,92.40
2017-11-23T08:27:38.272Z,92.60
2017-11-23T08:30:06.684Z,92.00
2017-11-23T08:32:34.754Z,92.40
2017-11-23T08:35:02.832Z,92.50
2017-11-23T08:37:31.701Z,92.10
2017-11-23T08:39:59.807Z,92.10
2017-11-23T08:42:28.841Z,92.10
2017-11-23T08:44:56.937Z,92.10
2017-11-23T08:47:25.009Z,92.40
2017-11-23T08:49:53.206Z,92.50
2017-11-23T08:52:22.100Z,92.60
2017-11-23T08:54:54.362Z,92.20
2017-11-23T08:57:23.664Z,92.20
2017-11-23T08:59:52.532Z,92.00
2017-11-23T09:02:20.613Z,91.90
2017-11-23T09:04:48.713Z,91.90
2017-11-23T09:07:16.978Z,92.10
2017-11-23T09:09:45.065Z,91.90
2017-11-23T09:12:15.028Z,92.10
2017-11-23T09:14:43.125Z,92.00
2017-11-23T09:17:11.208Z,92.60
2017-11-23T09:19:40.219Z,92.50
2017-11-23T09:22:08.304Z,92.50
2017-11-23T09:24:36.425Z,92.50
2017-11-23T09:27:07.349Z,92.80
2017-11-23T09:29:35.461Z,92.40
2017-11-23T09:32:03.580Z,92.40
2017-11-23T09:34:32.385Z,92.50
2017-11-23T09:37:00.687Z,92.20
2017-11-23T09:39:30.781Z,92.70
2017-11-23T09:41:58.873Z,92.70
2017-11-23T09:44:26.968Z,92.20
2017-11-23T09:46:56.158Z,91.70
2017-11-23T09:49:24.233Z,91.70
2017-11-23T09:51:52.346Z,92.00
2017-11-23T09:54:20.423Z,91.60
2017-11-23T09:56:48.556Z,91.50
2017-11-23T09:59:17.432Z,91.20
2017-11-23T10:01:45.653Z,91.20
2017-11-23T10:04:14.153Z,91.70
2017-11-23T10:06:42.224Z,91.50
2017-11-23T10:09:11.960Z,91.20
2017-11-23T10:11:40.453Z,91.20
2017-11-23T10:14:14.828Z,91.30
2017-11-23T10:16:42.932Z,91.30
2017-11-23T10:19:11.774Z,91.70
2017-11-23T10:21:39.889Z,91.40
2017-11-23T10:24:07.977Z,91.30
2017-11-23T10:26:36.850Z,91.40
2017-11-23T10:29:04.958Z,91.30
2017-11-23T10:31:33.069Z,91.10
2017-11-23T10:34:04.283Z,91.50
2017-11-23T10:36:32.372Z,91.80
2017-11-23T10:39:00.461Z,91.70
2017-11-23T10:41:28.565Z,91.50
2017-11-23T10:43:56.651Z,91.50
2017-11-23T10:46:24.749Z,91.30
2017-11-23T10:48:53.064Z,91.50
2017-11-23T10:51:21.153Z,91.40
2017-11-23T10:53:49.383Z,91.70
2017-11-23T10:56:17.534Z,91.50
2017-11-23T10:58:46.395Z,92.50
2017-11-23T11:01:14.548Z,92.20
2017-11-23T11:03:43.658Z,93.20
2017-11-23T11:06:11.836Z,93.10
2017-11-23T11:08:39.928Z,93.30
2017-11-23T11:11:08.793Z,93.20
2017-11-23T11:13:36.903Z,93.20
2017-11-23T11:16:04.990Z,92.80
2017-11-23T11:18:33.401Z,92.60
2017-11-23T11:21:01.490Z,92.90
2017-11-23T11:23:29.561Z,92.80
2017-11-23T11:25:57.665Z,93.10
2017-11-23T11:28:26.529Z,93.10
2017-11-23T11:30:54.629Z,93.10
2017-11-23T11:33:23.505Z,93.00
2017-11-23T11:35:52.386Z,93.00
2017-11-23T11:38:20.462Z,93.00
2017-11-23T11:40:48.572Z,93.30
2017-11-23T11:43:16.652Z,93.60
2017-11-23T11:45:44.757Z,93.30
2017-11-23T11:48:12.839Z,93.50
2017-11-23T11:50:40.929Z,93.70
2017-11-23T11:53:09.825Z,93.70
2017-11-23T11:55:38.669Z,93.80
2017-11-23T11:58:06.784Z,93.80
2017-11-23T12:00:35.658Z,93.70
2017-11-23T12:03:03.736Z,93.60
2017-11-23T12:05:31.909Z,93.90
2017-11-23T12:08:00.003Z,93.80
2017-11-23T12:10:28.116Z,93.90
2017-11-23T12:12:56.229Z,94.10
2017-11-23T12:15:33.085Z,93.90
2017-11-23T12:18:18.940Z,94.10
2017-11-23T12:21:04.790Z,94.30
2017-11-23T12:23:45.677Z,93.90
2017-11-23T12:26:13.776Z,93.70
2017-11-23T12:31:47.082Z,93.40
2017-11-23T12:34:15.211Z,93.60
2017-11-23T12:36:43.293Z,93.60
2017-11-23T12:39:11.386Z,93.60
2017-11-23T12:41:39.528Z,93.50
2017-11-23T12:44:07.643Z,93.60
2017-11-23T12:46:35.720Z,93.90
2017-11-23T12:49:03.825Z,93.70
2017-11-23T12:51:31.922Z,93.50
2017-11-23T12:54:00.032Z,93.50
2017-11-23T12:56:28.125Z,93.10
2017-11-23T12:58:56.226Z,93.40
2017-11-23T13:01:24.365Z,93.50
2017-11-23T13:03:52.446Z,93.10
2017-11-23T13:06:20.567Z,93.00
2017-11-23T13:08:49.461Z,93.10
2017-11-23T13:11:17.573Z,93.10
2017-11-23T13:13:45.665Z,93.10
2017-11-23T13:16:13.754Z,93.00
2017-11-23T13:18:41.859Z,92.80
2017-11-23T13:21:11.681Z,92.90
2017-11-23T13:23:39.770Z,92.90
2017-11-23T13:26:07.882Z,92.50
2017-11-23T13:28:35.985Z,92.70
2017-11-23T13:31:04.060Z,93.10
2017-11-23T13:33:32.913Z,93.30
2017-11-23T13:36:01.013Z,93.30
2017-11-23T13:38:29.881Z,92.30
2017-11-23T13:40:57.989Z,92.30
2017-11-23T13:43:26.080Z,91.40
2017-11-23T13:45:54.160Z,91.50
2017-11-23T13:48:22.330Z,91.40
2017-11-23T13:50:50.421Z,91.80
2017-11-23T13:53:19.412Z,92.10
2017-11-23T13:55:47.525Z,92.10
2017-11-23T13:58:15.619Z,91.80
2017-11-23T14:00:44.572Z,91.70
2017-11-23T14:03:12.650Z,91.70
2017-11-23T14:05:40.753Z,91.60
2017-11-23T14:08:08.872Z,91.70
2017-11-23T14:10:36.985Z,91.80
2017-11-23T14:13:05.849Z,92.10
2017-11-23T14:15:33.945Z,91.90
2017-11-23T14:18:02.020Z,91.90
2017-11-23T14:20:30.192Z,91.80
2017-11-23T14:22:58.286Z,91.80
2017-11-23T14:25:27.153Z,91.90
2017-11-23T14:27:55.231Z,91.90
2017-11-23T14:30:24.210Z,92.30
2017-11-23T14:32:52.324Z,92.30
2017-11-23T14:35:20.449Z,92.10
2017-11-23T14:37:48.554Z,92.70
2017-11-23T14:40:17.404Z,93.00
2017-11-23T14:42:45.497Z,93.00
2017-11-23T14:45:13.602Z,93.10
2017-11-23T14:47:41.886Z,93.10
2017-11-23T14:50:09.970Z,92.80
2017-11-23T14:52:38.096Z,93.00
2017-11-23T14:55:06.964Z,92.90
2017-11-23T14:57:35.058Z,92.90
2017-11-23T15:00:03.212Z,92.60
2017-11-23T15:02:32.322Z,92.70
2017-11-23T15:05:00.409Z,92.90
2017-11-23T15:07:29.268Z,93.10
2017-11-23T15:09:57.348Z,93.10
2017-11-23T15:12:26.005Z,93.20
2017-11-23T15:14:54.089Z,92.80
2017-11-23T15:17:22.211Z,92.80
2017-11-23T15:19:51.081Z,92.90
2017-11-23T15:22:19.183Z,92.90
2017-11-23T15:24:47.987Z,93.00
2017-11-23T15:27:16.108Z,93.20
2017-11-23T15:29:44.210Z,92.80
2017-11-23T15:32:12.293Z,92.70
2017-11-23T15:34:40.396Z,92.60
2017-11-23T15:37:08.488Z,92.90
2017-11-23T15:39:36.562Z,92.80
2017-11-23T15:42:04.659Z,92.50
2017-11-23T15:44:33.562Z,92.60
2017-11-23T15:47:02.426Z,92.50
2017-11-23T15:49:31.281Z,92.70
2017-11-23T15:52:00.274Z,92.70
2017-11-23T15:54:28.396Z,92.80
2017-11-23T15:56:57.257Z,94.50
2017-11-23T15:59:25.368Z,94.50
2017-11-23T16:01:53.944Z,95.40
2017-11-23T16:04:22.015Z,97.20
2017-11-23T16:06:51.570Z,99.90
2017-11-23T16:09:20.149Z,99.90
2017-11-23T16:11:48.241Z,99.90
2017-11-23T16:14:16.690Z,99.90
2017-11-23T16:16:44.768Z,99.90
2017-11-23T16:19:12.893Z,99.90
2017-11-23T16:21:41.788Z,99.90
2017-11-23T16:24:10.673Z,99.90
2017-11-23T16:26:38.984Z,99.90
2017-11-23T16:29:07.090Z,99.90
2017-11-23T16:31:35.493Z,99.90
2017-11-23T16:34:03.588Z,99.90
2017-11-23T16:36:32.347Z,99.90
2017-11-23T16:39:04.313Z,99.90
2017-11-23T16:41:36.813Z,99.90
2017-11-23T16:47:15.759Z,99.90
2017-11-23T16:53:01.521Z,99.90
2017-11-23T16:55:35.049Z,99.90
2017-11-23T16:58:06.507Z,99.90
2017-11-23T17:00:38.070Z,99.90
2017-11-23T17:03:11.798Z,99.90
2017-11-23T17:05:46.369Z,99.90
2017-11-23T17:08:20.857Z,99.90
2017-11-23T17:13:59.588Z,99.90
2017-11-23T17:16:33.382Z,99.90
2017-11-23T17:19:03.908Z,99.90
2017-11-23T17:21:32.973Z,99.90
2017-11-23T17:24:01.073Z,99.90
2017-11-23T17:26:29.946Z,99.90
2017-11-23T17:28:58.051Z,99.90
2017-11-23T17:31:26.144Z,99.90
2017-11-23T17:33:55.170Z,99.90
2017-11-23T17:36:23.274Z,99.90
2017-11-23T17:38:51.361Z,99.90
2017-11-23T17:41:19.480Z,99.90
2017-11-23T17:43:47.621Z,99.90
2017-11-23T17:46:15.725Z,99.90
2017-11-23T17:48:43.829Z,99.90
2017-11-23T17:51:11.953Z,99.90
2017-11-23T17:53:40.044Z,99.90
2017-11-23T17:56:08.185Z,99.90
2017-11-23T18:05:20.709Z,99.90
2017-11-23T18:07:49.581Z,99.90
2017-11-23T18:10:18.415Z,99.90
2017-11-23T18:12:47.204Z,99.90
2017-11-23T18:15:15.991Z,99.90
2017-11-23T18:17:44.382Z,99.90
2017-11-23T18:20:12.858Z,99.90
2017-11-23T18:22:41.652Z,99.90
2017-11-23T18:25:09.762Z,99.90
2017-11-23T18:27:38.053Z,99.90
2017-11-23T18:30:07.392Z,99.90
2017-11-23T18:32:35.596Z,99.90
2017-11-23T18:35:03.695Z,99.90
2017-11-23T18:37:33.030Z,99.90
2017-11-23T18:40:01.225Z,99.90
2017-11-23T18:42:29.362Z,99.90
2017-11-23T18:44:57.550Z,99.90
2017-11-23T18:47:25.644Z,99.90
2017-11-23T18:49:53.868Z,99.90
2017-11-23T18:52:21.962Z,99.90
2017-11-23T18:54:50.129Z,99.90
2017-11-23T18:57:19.043Z,99.90
2017-11-23T18:59:47.132Z,99.90
2017-11-23T19:02:15.231Z,99.90
2017-11-23T19:04:43.317Z,99.90
2017-11-23T19:07:11.505Z,99.90
2017-11-23T19:09:39.772Z,99.90
2017-11-23T19:12:07.985Z,99.90
2017-11-23T19:14:36.174Z,99.90
2017-11-23T19:17:04.283Z,99.90
2017-11-23T19:19:32.399Z,99.70
2017-11-23T19:22:00.544Z,99.60
2017-11-23T19:24:28.773Z,99.80
2017-11-23T19:26:57.150Z,99.60
2017-11-23T19:29:25.291Z,99.60
2017-11-23T19:31:53.510Z,99.60
2017-11-23T19:34:22.204Z,99.70
2017-11-23T19:36:50.320Z,99.40
2017-11-23T19:39:18.477Z,99.80
2017-11-23T19:41:46.749Z,99.90
2017-11-23T19:44:14.846Z,99.90
2017-11-23T19:46:42.996Z,99.90
2017-11-23T19:49:11.205Z,99.90
2017-11-23T19:51:39.294Z,99.90
2017-11-23T19:54:07.405Z,99.90
2017-11-23T19:56:35.528Z,99.70
2017-11-23T19:59:03.685Z,99.70
2017-11-23T20:01:32.601Z,99.80
2017-11-23T20:04:00.673Z,99.80
2017-11-23T20:06:28.854Z,99.90
2017-11-23T20:08:56.980Z,99.90
2017-11-23T20:11:25.196Z,99.50
2017-11-23T20:13:53.537Z,98.70
2017-11-23T20:16:21.738Z,98.60
2017-11-23T20:18:50.093Z,98.50
2017-11-23T20:21:18.577Z,98.70
2017-11-23T20:23:47.448Z,98.90
2017-11-23T20:26:15.545Z,98.90
2017-11-23T20:28:43.858Z,99.20
2017-11-23T20:31:11.991Z,99.30
2017-11-23T20:33:40.174Z,99.50
2017-11-23T20:36:09.057Z,99.60
2017-11-23T20:38:37.932Z,99.70
2017-11-23T20:41:06.134Z,99.70
2017-11-23T20:43:34.504Z,99.80
2017-11-23T20:46:02.653Z,99.50
2017-11-23T20:48:30.778Z,99.50
2017-11-23T20:50:58.872Z,99.80
2017-11-23T20:53:27.169Z,99.20
2017-11-23T20:55:55.378Z,99.20
2017-11-23T20:58:24.297Z,99.50
2017-11-23T21:00:53.069Z,99.50
2017-11-23T21:03:21.211Z,99.10
2017-11-23T21:05:49.444Z,99.10
2017-11-23T21:08:17.566Z,99.30
2017-11-23T21:10:46.581Z,99.40
2017-11-23T21:13:14.796Z,99.40
2017-11-23T21:15:43.516Z,99.10
2017-11-23T21:18:11.660Z,99.80
2017-11-23T21:20:39.861Z,99.90
2017-11-23T21:23:08.269Z,99.50
2017-11-23T21:25:36.384Z,99.70
2017-11-23T21:28:04.492Z,99.30
2017-11-23T21:30:33.396Z,99.40
2017-11-23T21:33:02.272Z,99.70
2017-11-23T21:35:30.373Z,99.70
2017-11-23T21:37:59.376Z,99.60
2017-11-23T21:40:28.353Z,98.30
2017-11-23T21:42:56.956Z,98.30
2017-11-23T21:45:25.053Z,98.30
2017-11-23T21:47:53.144Z,98.20
2017-11-23T21:50:21.280Z,97.60
2017-11-23T21:52:49.359Z,97.70
2017-11-23T21:55:17.457Z,97.30
2017-11-23T21:57:45.637Z,97.20
2017-11-23T22:00:14.403Z,97.00
2017-11-23T22:02:43.147Z,97.30
2017-11-23T22:05:11.256Z,98.30
2017-11-23T22:07:39.379Z,97.60
2017-11-23T22:10:08.248Z,96.40
2017-11-23T22:12:36.446Z,96.40
2017-11-23T22:15:05.328Z,96.40
2017-11-23T22:17:33.431Z,96.40
2017-11-23T22:20:01.537Z,96.70
2017-11-23T22:22:29.893Z,97.00
2017-11-23T22:24:57.993Z,96.30
2017-11-23T22:27:26.318Z,96.60
2017-11-23T22:29:55.161Z,97.20
2017-11-23T22:32:23.267Z,97.20
2017-11-23T22:34:51.437Z,97.10
2017-11-23T22:37:19.585Z,97.10
2017-11-23T22:39:47.688Z,96.30
2017-11-23T22:42:16.541Z,96.70
2017-11-23T22:44:45.637Z,96.70
2017-11-23T22:47:14.453Z,96.90
2017-11-23T22:49:42.542Z,97.20
2017-11-23T22:52:11.582Z,97.70
2017-11-23T22:54:39.669Z,97.70
2017-11-23T22:57:07.779Z,97.30
2017-11-23T22:59:35.871Z,96.90
2017-11-23T23:02:03.977Z,97.50
2017-11-23T23:04:32.114Z,97.30
2017-11-23T23:07:00.799Z,97.30
2017-11-23T23:09:28.909Z,97.30
2017-11-23T23:11:56.988Z,97.30
2017-11-23T23:14:25.084Z,97.10
2017-11-23T23:16:53.164Z,97.40
2017-11-23T23:19:22.057Z,97.70
2017-11-23T23:21:50.925Z,97.20
2017-11-23T23:24:19.028Z,97.20
2017-11-23T23:26:47.326Z,97.50
2017-11-23T23:29:15.429Z,97.70
2017-11-23T23:31:43.520Z,97.20
2017-11-23T23:34:11.711Z,97.70
2017-11-23T23:36:40.208Z,97.60
2017-11-23T23:39:09.062Z,97.70
2017-11-23T23:41:37.171Z,97.70
2017-11-23T23:44:06.036Z,98.00
2017-11-23T23:46:34.147Z,98.00
2017-11-23T23:49:02.258Z,97.50
2017-11-23T23:51:30.348Z,97.10
2017-11-23T23:53:58.476Z,97.70
2017-11-23T23:56:26.568Z,96.90
2017-11-23T23:58:54.694Z,97.10
